createdAt,value
2019-01-12T00:01:02.344Z,16.60
2019-01-12T00:04:05.357Z,18.17
2019-01-12T00:07:08.085Z,22.00
2019-01-12T00:10:10.791Z,15.50
2019-01-12T00:13:13.625Z,17.93
2019-01-12T00:16:16.296Z,19.97
2019-01-12T00:19:18.908Z,22.43
2019-01-12T00:22:21.567Z,17.40
2019-01-12T00:25:24.498Z,22.70
2019-01-12T00:28:27.182Z,21.73
2019-01-12T00:31:29.778Z,24.40
2019-01-12T00:34:32.447Z,25.80
2019-01-12T00:37:35.028Z,20.73
2019-01-12T00:40:37.800Z,18.13
2019-01-12T00:43:40.435Z,19.60
2019-01-12T00:46:43.128Z,16.20
2019-01-12T00:49:45.866Z,18.00
2019-01-12T00:52:48.449Z,18.93
2019-01-12T00:55:51.063Z,23.53
2019-01-12T00:58:53.797Z,25.23
2019-01-12T01:01:57.330Z,19.37
2019-01-12T01:05:01.512Z,22.37
2019-01-12T01:08:05.395Z,30.03
2019-01-12T01:11:08.076Z,19.23
2019-01-12T01:14:10.770Z,35.57
2019-01-12T01:17:13.376Z,19.33
2019-01-12T01:20:16.769Z,24.17
2019-01-12T01:23:19.550Z,27.27
2019-01-12T01:26:22.467Z,29.27
2019-01-12T01:29:25.225Z,25.27
2019-01-12T01:32:27.838Z,26.13
2019-01-12T01:35:30.428Z,21.17
2019-01-12T01:38:33.111Z,24.33
2019-01-12T01:41:35.784Z,27.20
2019-01-12T01:44:38.486Z,22.93
2019-01-12T01:47:41.157Z,30.37
2019-01-12T01:50:43.831Z,38.70
2019-01-12T01:53:46.677Z,29.33
2019-01-12T01:56:49.423Z,27.90
2019-01-12T01:59:52.147Z,28.13
2019-01-12T02:02:54.803Z,32.03
2019-01-12T02:05:58.280Z,26.47
2019-01-12T02:09:00.995Z,25.33
2019-01-12T02:16:03.927Z,33.20
2019-01-12T02:19:06.734Z,29.97
2019-01-12T02:22:09.381Z,28.73
2019-01-12T02:25:12.323Z,28.50
2019-01-12T02:28:14.892Z,58.23
2019-01-12T02:31:17.607Z,69.57
2019-01-12T02:34:39.687Z,102.33
2019-01-12T02:37:42.376Z,97.47
2019-01-12T02:40:45.065Z,98.90
2019-01-12T02:43:47.792Z,58.43
2019-01-12T02:46:50.509Z,66.10
2019-01-12T02:49:53.249Z,56.83
2019-01-12T02:52:55.793Z,58.57
2019-01-12T02:55:58.373Z,80.67
2019-01-12T02:59:01.075Z,67.47
2019-01-12T03:02:04.560Z,69.73
2019-01-12T03:05:07.279Z,59.00
2019-01-12T03:08:09.937Z,81.57
2019-01-12T03:11:15.331Z,85.60
2019-01-12T03:14:18.085Z,60.93
2019-01-12T03:17:21.873Z,60.53
2019-01-12T03:20:24.628Z,115.23
2019-01-12T03:23:27.346Z,69.37
2019-01-12T03:26:30.014Z,90.23
2019-01-12T03:29:32.680Z,30.77
2019-01-12T03:32:35.259Z,52.70
2019-01-12T03:35:38.038Z,55.03
2019-01-12T03:38:41.821Z,97.73
2019-01-12T03:41:44.619Z,96.30
2019-01-12T03:44:47.233Z,60.80
2019-01-12T03:47:49.991Z,88.60
2019-01-12T03:50:52.636Z,56.87
2019-01-12T03:53:55.345Z,63.10
2019-01-12T03:56:58.020Z,47.93
2019-01-12T04:00:00.691Z,63.03
2019-01-12T04:03:03.393Z,39.17
2019-01-12T04:06:06.066Z,100.30
2019-01-12T04:09:08.803Z,48.70
2019-01-12T04:12:11.512Z,35.53
2019-01-12T04:15:14.208Z,27.20
2019-01-12T04:18:16.811Z,38.43
2019-01-12T04:21:19.336Z,84.67
2019-01-12T04:24:21.903Z,86.80
2019-01-12T04:27:24.438Z,65.47
2019-01-12T04:30:27.179Z,61.47
2019-01-12T04:33:29.870Z,95.07
2019-01-12T04:36:32.585Z,99.73
2019-01-12T04:39:35.250Z,87.60
2019-01-12T04:42:37.958Z,121.13
2019-01-12T04:50:04.611Z,194.03
2019-01-12T04:53:07.351Z,175.10
2019-01-12T04:56:10.076Z,134.07
2019-01-12T04:59:12.701Z,126.60
2019-01-12T05:02:15.412Z,137.50
2019-01-12T05:05:18.170Z,171.77
2019-01-12T05:08:20.801Z,166.30
2019-01-12T05:11:23.367Z,135.63
2019-01-12T05:14:26.247Z,151.60
2019-01-12T05:17:28.890Z,151.63
2019-01-12T05:20:31.554Z,120.27
2019-01-12T05:23:34.302Z,111.00
2019-01-12T05:26:36.989Z,194.93
2019-01-12T05:29:39.777Z,161.80
2019-01-12T05:32:42.452Z,147.47
2019-01-12T05:35:45.002Z,141.57
2019-01-12T05:38:47.575Z,106.50
2019-01-12T05:41:50.239Z,135.03
2019-01-12T05:48:51.014Z,139.43
2019-01-12T05:51:53.587Z,191.20
2019-01-12T05:54:56.252Z,206.97
2019-01-12T05:57:58.888Z,218.77
2019-01-12T06:01:01.487Z,248.97
2019-01-12T06:04:04.141Z,270.83
2019-01-12T06:07:06.828Z,240.73
2019-01-12T06:10:09.591Z,279.57
2019-01-12T06:13:12.183Z,332.63
2019-01-12T06:16:14.872Z,334.70
2019-01-12T06:19:17.431Z,310.67
2019-01-12T06:22:20.138Z,393.63
2019-01-12T06:25:22.805Z,377.10
2019-01-12T06:28:25.453Z,344.90
2019-01-12T06:31:28.097Z,341.60
2019-01-12T06:34:30.858Z,356.53
2019-01-12T06:37:33.542Z,377.60
2019-01-12T06:40:36.252Z,312.50
2019-01-12T06:43:39.052Z,344.27
2019-01-12T06:46:41.725Z,367.17
2019-01-12T06:49:44.256Z,297.63
2019-01-12T06:52:47.147Z,224.50
2019-01-12T06:55:49.833Z,305.30
2019-01-12T06:58:52.484Z,308.87
2019-01-12T07:01:55.215Z,234.23
2019-01-12T07:04:57.956Z,269.53
2019-01-12T07:08:00.711Z,387.67
2019-01-12T07:11:03.408Z,346.37
2019-01-12T07:14:06.107Z,294.17
2019-01-12T07:17:08.667Z,297.33
2019-01-12T07:20:15.942Z,367.40
2019-01-12T07:23:18.685Z,314.73
2019-01-12T07:26:21.345Z,303.40
2019-01-12T07:29:24.085Z,325.70
2019-01-12T07:32:26.698Z,268.73
2019-01-12T07:35:29.353Z,297.30
2019-01-12T07:38:32.000Z,370.17
2019-01-12T07:41:34.630Z,314.03
2019-01-12T07:44:37.176Z,353.60
2019-01-12T07:47:39.929Z,268.87
2019-01-12T07:50:42.539Z,335.00
2019-01-12T07:53:45.161Z,334.60
2019-01-12T07:56:47.747Z,347.83
2019-01-12T07:59:50.433Z,318.90
2019-01-12T08:02:53.104Z,302.97
2019-01-12T08:05:55.746Z,371.50
2019-01-12T08:08:58.400Z,292.50
2019-01-12T08:12:01.044Z,208.77
2019-01-12T08:15:04.565Z,124.43
2019-01-12T08:18:07.303Z,116.00
2019-01-12T08:21:09.942Z,72.40
2019-01-12T08:24:12.670Z,68.20
2019-01-12T08:27:15.383Z,76.87
2019-01-12T08:30:18.333Z,63.47
2019-01-12T08:33:21.064Z,87.07
2019-01-12T08:36:23.717Z,69.57
2019-01-12T08:39:26.372Z,66.00
2019-01-12T08:42:29.028Z,52.30
2019-01-12T08:45:31.817Z,50.93
2019-01-12T08:48:34.450Z,51.10
2019-01-12T08:51:37.213Z,50.50
2019-01-12T08:54:39.915Z,51.83
2019-01-12T08:57:42.579Z,45.77
2019-01-12T09:00:45.262Z,46.87
2019-01-12T09:03:48.006Z,48.87
2019-01-12T09:07:31.031Z,45.10
2019-01-12T09:10:33.701Z,42.93
2019-01-12T09:13:36.303Z,43.33
2019-01-12T09:16:38.992Z,38.60
2019-01-12T09:19:41.634Z,41.07
2019-01-12T09:22:45.206Z,47.40
2019-01-12T09:25:47.865Z,39.57
2019-01-12T09:28:50.452Z,36.80
2019-01-12T09:31:53.038Z,34.87
2019-01-12T09:34:55.851Z,34.73
2019-01-12T09:37:58.481Z,37.77
2019-01-12T09:41:01.136Z,40.50
2019-01-12T09:44:04.908Z,33.13
2019-01-12T09:47:07.640Z,28.70
2019-01-12T09:50:12.949Z,38.03
2019-01-12T09:53:16.812Z,28.47
2019-01-12T09:56:19.497Z,34.83
2019-01-12T09:59:22.471Z,34.60
2019-01-12T10:02:25.143Z,22.87
2019-01-12T10:05:27.767Z,34.70
2019-01-12T10:08:30.457Z,27.17
2019-01-12T10:11:33.223Z,44.43
2019-01-12T10:14:35.827Z,32.77
2019-01-12T10:17:38.488Z,33.33
2019-01-12T10:20:41.183Z,27.80
2019-01-12T10:23:43.939Z,35.93
2019-01-12T10:26:46.586Z,31.87
2019-01-12T10:29:49.207Z,33.60
2019-01-12T10:32:51.847Z,40.73
2019-01-12T10:35:54.421Z,22.00
2019-01-12T10:38:57.126Z,31.57
2019-01-12T10:41:59.797Z,32.67
2019-01-12T10:45:02.457Z,25.57
2019-01-12T10:48:05.102Z,27.50
2019-01-12T10:51:07.772Z,34.80
2019-01-12T10:54:10.426Z,24.33
2019-01-12T10:57:13.074Z,15.20
2019-01-12T11:00:38.127Z,25.03
2019-01-12T11:03:40.848Z,22.13
2019-01-12T11:06:43.506Z,31.37
2019-01-12T11:09:46.148Z,22.73
2019-01-12T11:12:48.894Z,17.57
2019-01-12T11:15:51.536Z,34.70
2019-01-12T11:18:54.187Z,27.10
2019-01-12T11:21:56.913Z,22.43
2019-01-12T11:24:59.718Z,18.57
2019-01-12T11:28:02.454Z,25.63
2019-01-12T11:31:05.280Z,25.27
2019-01-12T11:34:08.000Z,26.60
2019-01-12T11:37:10.751Z,18.77
2019-01-12T11:40:17.983Z,20.87
2019-01-12T11:43:20.640Z,24.77
2019-01-12T11:46:23.248Z,18.53
2019-01-12T11:49:25.931Z,16.50
2019-01-12T11:52:28.662Z,13.83
2019-01-12T11:55:31.366Z,17.43
2019-01-12T11:58:34.052Z,15.20
2019-01-12T12:01:36.933Z,20.27
2019-01-12T12:04:39.706Z,25.90
2019-01-12T12:07:42.503Z,18.87
2019-01-12T12:10:45.163Z,15.87
2019-01-12T12:13:47.971Z,20.30
2019-01-12T12:16:50.625Z,19.90
2019-01-12T12:19:53.368Z,27.53
2019-01-12T12:22:56.114Z,22.80
2019-01-12T12:25:58.801Z,9.83
2019-01-12T12:29:01.362Z,17.27
2019-01-12T12:32:04.093Z,12.17
2019-01-12T12:35:06.826Z,18.73
2019-01-12T12:38:10.044Z,16.30
2019-01-12T12:41:12.732Z,16.07
2019-01-12T12:44:15.414Z,12.07
2019-01-12T12:47:17.974Z,14.50
2019-01-12T12:50:20.676Z,10.57
2019-01-12T12:53:23.299Z,15.47
2019-01-12T12:56:26.224Z,16.57
2019-01-12T12:59:28.942Z,14.70
2019-01-12T13:02:31.627Z,14.73
2019-01-12T13:05:34.418Z,11.17
2019-01-12T13:08:37.153Z,10.47
2019-01-12T13:11:41.537Z,9.30
2019-01-12T13:14:44.222Z,20.40
2019-01-12T13:17:46.874Z,15.73
2019-01-12T13:20:49.568Z,5.60
2019-01-12T13:23:52.276Z,16.20
2019-01-12T13:26:55.025Z,11.70
2019-01-12T13:29:57.735Z,12.37
2019-01-12T13:33:00.356Z,20.40
2019-01-12T13:36:04.705Z,12.07
2019-01-12T13:39:07.654Z,15.13
2019-01-12T13:42:10.287Z,15.60
2019-01-12T13:45:14.774Z,16.97
2019-01-12T13:48:17.432Z,12.60
2019-01-12T13:51:21.342Z,15.53
2019-01-12T13:54:24.107Z,18.40
2019-01-12T13:57:26.858Z,17.33
2019-01-12T14:00:36.557Z,17.90
2019-01-12T14:03:39.170Z,14.83
2019-01-12T14:06:41.896Z,23.77
2019-01-12T14:09:44.590Z,17.60
2019-01-12T14:12:47.254Z,26.20
2019-01-12T14:15:49.958Z,24.30
2019-01-12T14:18:52.638Z,21.77
2019-01-12T14:21:55.357Z,23.33
2019-01-12T14:24:57.995Z,23.50
2019-01-12T14:28:00.775Z,16.80
2019-01-12T14:31:03.675Z,14.50
2019-01-12T14:34:06.296Z,18.67
2019-01-12T14:37:16.480Z,7.07
2019-01-12T14:40:19.231Z,14.57
2019-01-12T14:43:21.964Z,11.67
2019-01-12T14:46:24.634Z,12.70
2019-01-12T14:49:27.376Z,5.97
2019-01-12T14:52:29.982Z,8.10
2019-01-12T14:55:32.618Z,9.13
2019-01-12T14:58:35.297Z,7.60
2019-01-12T15:01:38.042Z,8.03
2019-01-12T15:04:40.723Z,10.33
2019-01-12T15:07:43.599Z,13.07
2019-01-12T15:10:46.325Z,5.00
2019-01-12T15:13:48.959Z,11.13
2019-01-12T15:16:51.676Z,8.47
2019-01-12T15:21:56.825Z,16.07
2019-01-12T15:24:59.634Z,17.77
2019-01-12T15:28:08.806Z,13.80
2019-01-12T15:31:07.088Z,10.23
2019-01-12T15:34:09.939Z,9.50
2019-01-12T15:37:12.726Z,11.03
2019-01-12T15:40:16.094Z,9.03
2019-01-12T15:43:18.883Z,6.83
2019-01-12T15:46:21.781Z,11.73
2019-01-12T15:49:24.548Z,5.13
2019-01-12T15:52:27.211Z,8.67
2019-01-12T15:55:29.938Z,11.40
2019-01-12T15:58:32.685Z,11.33
2019-01-12T16:01:35.406Z,6.80
2019-01-12T16:04:38.235Z,9.33
2019-01-12T16:07:41.028Z,7.90
2019-01-12T16:10:43.802Z,5.67
2019-01-12T16:13:46.583Z,5.53
2019-01-12T16:16:49.272Z,9.70
2019-01-12T16:19:51.866Z,9.33
2019-01-12T16:22:54.588Z,11.83
2019-01-12T16:25:57.421Z,13.20
2019-01-12T16:29:01.206Z,8.17
2019-01-12T16:32:04.026Z,7.00
2019-01-12T16:35:06.723Z,13.57
2019-01-12T16:38:09.335Z,8.57
2019-01-12T16:41:12.190Z,10.37
2019-01-12T16:44:14.739Z,9.87
2019-01-12T16:47:17.386Z,12.57
2019-01-12T16:50:20.120Z,12.07
2019-01-12T16:53:22.935Z,19.77
2019-01-12T16:56:25.636Z,11.27
2019-01-12T16:59:28.533Z,12.93
2019-01-12T17:02:31.204Z,14.37
2019-01-12T17:05:33.904Z,15.07
2019-01-12T17:08:36.496Z,14.17
2019-01-12T17:11:39.220Z,6.50
2019-01-12T17:14:42.376Z,12.20
2019-01-12T17:17:45.092Z,14.00
2019-01-12T17:20:47.767Z,14.90
2019-01-12T17:23:51.074Z,13.70
2019-01-12T17:26:53.793Z,12.43
2019-01-12T17:29:56.370Z,13.17
2019-01-12T17:32:59.137Z,14.20
2019-01-12T17:36:01.848Z,16.47
2019-01-12T17:39:08.654Z,13.47
2019-01-12T17:42:11.661Z,9.77
2019-01-12T17:45:17.726Z,16.33
2019-01-12T17:48:20.815Z,8.70
2019-01-12T17:51:23.460Z,7.83
2019-01-12T17:54:26.545Z,8.13
2019-01-12T17:57:29.327Z,10.13
2019-01-12T18:00:37.941Z,10.77
2019-01-12T18:03:40.601Z,16.13
2019-01-12T18:06:43.299Z,13.60
2019-01-12T18:09:45.914Z,16.87
2019-01-12T18:12:48.618Z,13.73
2019-01-12T18:15:51.166Z,10.47
2019-01-12T18:18:53.924Z,12.77
2019-01-12T18:21:56.579Z,15.17
2019-01-12T18:24:59.399Z,11.73
2019-01-12T18:28:01.966Z,12.63
2019-01-12T18:31:04.712Z,9.23
2019-01-12T18:34:07.359Z,19.67
2019-01-12T18:37:10.043Z,16.00
2019-01-12T18:40:14.353Z,13.07
2019-01-12T18:43:17.188Z,16.67
2019-01-12T18:46:19.881Z,15.90
2019-01-12T18:49:22.602Z,22.60
2019-01-12T18:52:25.262Z,15.60
2019-01-12T18:55:27.891Z,15.80
2019-01-12T18:58:30.633Z,19.07
2019-01-12T19:01:33.407Z,20.60
2019-01-12T19:04:36.175Z,17.73
2019-01-12T19:07:39.110Z,21.27
2019-01-12T19:10:41.877Z,14.50
2019-01-12T19:13:44.518Z,14.90
2019-01-12T19:16:48.554Z,20.77
2019-01-12T19:19:51.327Z,23.23
2019-01-12T19:22:54.773Z,17.20
2019-01-12T19:25:57.488Z,16.07
2019-01-12T19:29:06.391Z,25.83
2019-01-12T19:32:04.741Z,21.57
2019-01-12T19:35:07.457Z,23.07
2019-01-12T19:38:10.321Z,32.87
2019-01-12T19:41:13.169Z,98.80
2019-01-12T19:44:15.867Z,122.33
2019-01-12T19:47:18.601Z,146.93
2019-01-12T19:50:23.269Z,141.03
2019-01-12T19:53:26.680Z,157.63
2019-01-12T19:56:29.452Z,102.43
2019-01-12T19:59:32.175Z,144.77
2019-01-12T20:02:34.839Z,148.10
2019-01-12T20:05:37.518Z,78.93
2019-01-12T20:08:40.275Z,71.70
2019-01-12T20:11:43.058Z,50.47
2019-01-12T20:14:45.763Z,31.10
2019-01-12T20:17:48.487Z,20.10
2019-01-12T20:20:52.226Z,26.87
2019-01-12T20:23:54.896Z,116.33
2019-01-12T20:26:57.605Z,132.40
2019-01-12T20:30:00.230Z,99.63
2019-01-12T20:33:40.648Z,52.20
2019-01-12T20:37:26.987Z,161.20
2019-01-12T20:40:39.372Z,179.00
2019-01-12T20:44:25.628Z,210.37
2019-01-12T20:48:08.914Z,248.63
2019-01-12T20:51:35.614Z,180.03
2019-01-12T20:55:21.870Z,129.87
2019-01-12T20:59:27.933Z,181.40
2019-01-12T21:03:17.638Z,166.93
2019-01-12T21:06:57.752Z,216.00
2019-01-12T21:10:31.697Z,194.53
2019-01-12T21:14:32.482Z,350.93
2019-01-12T21:17:35.250Z,248.17
2019-01-12T21:20:37.987Z,282.20
2019-01-12T21:23:41.501Z,252.93
2019-01-12T21:26:44.507Z,365.57
2019-01-12T21:29:47.232Z,232.60
2019-01-12T21:32:49.880Z,286.40
2019-01-12T21:35:53.423Z,301.97
2019-01-12T21:38:56.014Z,306.60
2019-01-12T21:42:06.148Z,252.93
2019-01-12T21:45:10.722Z,478.77
2019-01-12T21:48:13.416Z,206.00
2019-01-12T21:51:16.132Z,152.63
2019-01-12T21:54:18.737Z,233.03
2019-01-12T21:57:21.321Z,240.77
2019-01-12T22:00:23.947Z,294.17
2019-01-12T22:03:27.494Z,235.27
2019-01-12T22:06:30.179Z,343.20
2019-01-12T22:09:32.967Z,338.53
2019-01-12T22:12:35.696Z,378.53
2019-01-12T22:15:38.456Z,565.73
2019-01-12T22:18:41.139Z,465.20
2019-01-12T22:21:43.875Z,487.30
2019-01-12T22:24:46.555Z,317.93
2019-01-12T22:27:49.302Z,269.87
2019-01-12T22:30:51.985Z,488.30
2019-01-12T22:33:55.704Z,367.23
2019-01-12T22:36:58.548Z,295.77
2019-01-12T22:40:01.173Z,341.80
2019-01-12T22:43:03.818Z,337.30
2019-01-12T22:46:06.418Z,245.90
2019-01-12T22:49:09.037Z,370.30
2019-01-12T22:52:11.837Z,234.07
2019-01-12T22:55:14.426Z,215.10
2019-01-12T22:58:17.134Z,254.30
2019-01-12T23:01:38.730Z,424.77
2019-01-12T23:04:41.342Z,274.13
2019-01-12T23:07:44.021Z,198.37
2019-01-12T23:10:46.711Z,190.27
2019-01-12T23:13:49.405Z,252.63
2019-01-12T23:16:52.206Z,230.17
2019-01-12T23:19:54.839Z,275.20
2019-01-12T23:22:57.461Z,383.67
2019-01-12T23:26:00.187Z,274.60
2019-01-12T23:29:03.557Z,259.70
2019-01-12T23:32:06.227Z,250.77
2019-01-12T23:35:10.105Z,224.37
2019-01-12T23:38:12.779Z,353.70
2019-01-12T23:41:15.386Z,406.47
2019-01-12T23:44:17.945Z,211.93
2019-01-12T23:47:20.729Z,209.90
2019-01-12T23:50:23.383Z,98.87
2019-01-12T23:53:26.932Z,157.07
2019-01-12T23:56:29.564Z,311.07
2019-01-12T23:59:32.178Z,261.90
